Time;durP1;ratioP1;P1;durP2;ratioP2;P2;SDS_P1;SDS_P2;PMS_P1;PMS_P2;Temp;Humidity;BMP_temperature;BMP_pressure;BME280_temperature;BME280_humidity;BME280_pressure;Samples;Min_cycle;Max_cycle;Signal;HPM_P1;HPM_P2
2020/12/01 00:01:12;;;;;;;7.20;5.08;;;;;;;2.14;77.31;101330.50;1763268;80;21153;-58
2020/12/01 00:03:40;;;;;;;9.70;5.47;;;;;;;2.13;77.29;101331.72;1758823;80;21077;-59
2020/12/01 00:06:08;;;;;;;9.98;6.00;;;;;;;2.12;77.52;101336.45;1765615;80;21367;-58
2020/12/01 00:08:37;;;;;;;9.68;5.97;;;;;;;2.12;77.52;101333.84;1764063;81;21991;-58
2020/12/01 00:11:06;;;;;;;8.35;5.47;;;;;;;2.14;77.49;101336.99;1764237;80;21219;-58
2020/12/01 00:13:34;;;;;;;7.42;5.28;;;;;;;2.14;77.44;101337.39;1771132;80;21552;-59
2020/12/01 00:16:02;;;;;;;9.45;5.50;;;;;;;2.18;76.97;101345.37;1771756;80;21508;-58
2020/12/01 00:18:29;;;;;;;7.83;5.58;;;;;;;2.12;77.06;101343.84;1764181;80;22120;-59
2020/12/01 00:20:57;;;;;;;7.17;4.75;;;;;;;2.12;77.12;101345.53;1749499;80;21601;-59
2020/12/01 00:23:24;;;;;;;9.73;6.05;;;;;;;2.12;77.01;101343.84;1770189;79;21651;-58
2020/12/01 00:25:53;;;;;;;10.10;6.03;;;;;;;2.13;77.03;101340.81;1760658;80;22058;-59
2020/12/01 00:28:20;;;;;;;8.08;5.65;;;;;;;2.16;76.94;101344.83;1763451;80;21548;-59
2020/12/01 00:30:48;;;;;;;8.78;6.28;;;;;;;2.16;76.86;101342.23;1757315;81;23362;-59
2020/12/01 00:33:15;;;;;;;7.72;6.05;;;;;;;2.18;76.89;101339.28;1738742;80;21457;-59
2020/12/01 00:35:42;;;;;;;8.48;6.03;;;;;;;2.17;76.68;101337.51;1719263;83;21130;-58
2020/12/01 00:38:10;;;;;;;9.63;6.50;;;;;;;2.15;76.70;101326.17;1755653;81;22003;-59
2020/12/01 00:40:38;;;;;;;8.73;5.97;;;;;;;2.14;76.90;101332.20;1715024;83;21117;-58
2020/12/01 00:43:06;;;;;;;9.90;7.25;;;;;;;2.14;76.85;101341.28;1697463;82;23588;-59
2020/12/01 00:45:33;;;;;;;9.20;6.83;;;;;;;2.15;77.08;101333.97;1692236;83;21168;-58
2020/12/01 00:48:00;;;;;;;9.63;6.60;;;;;;;2.16;77.03;101334.04;1705881;82;21568;-59
2020/12/01 00:50:28;;;;;;;9.33;6.53;;;;;;;2.14;77.13;101327.00;1711548;83;21132;-58
2020/12/01 00:52:55;;;;;;;9.40;6.87;;;;;;;2.16;78.50;101327.55;1730121;81;21276;-59
2020/12/01 00:55:23;;;;;;;10.48;7.20;;;;;;;2.18;77.19;101328.48;1689852;83;21372;-58
2020/12/01 00:57:54;;;;;;;12.65;7.95;;;;;;;2.16;77.21;101329.24;1740873;81;21062;-59
2020/12/01 01:00:26;;;;;;;8.90;6.58;;;;;;;2.17;77.20;101326.72;1678273;84;21111;-59
2020/12/01 01:03:13;;;;;;;10.08;7.55;;;;;;;2.18;77.19;101323.69;1709463;81;21567;-59
2020/12/01 01:05:41;;;;;;;8.63;6.62;;;;;;;2.22;77.01;101324.28;1689044;83;21153;-59
2020/12/01 01:08:08;;;;;;;9.28;7.28;;;;;;;2.26;76.82;101307.98;1697414;82;21218;-59
2020/12/01 01:10:38;;;;;;;9.78;7.00;;;;;;;2.24;76.73;101308.34;1704311;83;21192;-59
2020/12/01 01:13:06;;;;;;;11.03;8.68;;;;;;;2.28;76.46;101311.52;1712700;83;21149;-59
2020/12/01 01:15:34;;;;;;;10.43;7.53;;;;;;;2.23;76.49;101310.03;1707485;82;21813;-59
2020/12/01 01:18:02;;;;;;;11.80;8.50;;;;;;;2.29;76.36;101312.39;1725304;82;21105;-59
2020/12/01 01:20:31;;;;;;;12.98;8.38;;;;;;;2.31;76.33;101321.13;1743189;81;21272;-59
2020/12/01 01:22:58;;;;;;;12.85;9.13;;;;;;;2.31;76.18;101312.94;1750161;81;21091;-59
2020/12/01 01:25:26;;;;;;;13.38;8.75;;;;;;;2.30;76.19;101311.56;1724257;81;21148;-59
2020/12/01 01:27:53;;;;;;;11.95;8.78;;;;;;;2.28;75.83;101308.02;1730341;81;21082;-59
2020/12/01 01:30:22;;;;;;;13.38;10.13;;;;;;;2.27;75.68;101314.95;1709341;82;21124;-58
2020/12/01 01:32:50;;;;;;;12.63;8.50;;;;;;;2.29;75.70;101311.09;1699536;84;21367;-59
2020/12/01 01:35:18;;;;;;;10.75;8.18;;;;;;;2.28;75.66;101311.52;1734396;81;21856;-59
2020/12/01 01:37:46;;;;;;;12.75;9.50;;;;;;;2.29;75.78;101305.89;1737905;81;21512;-59
2020/12/01 01:40:23;;;;;;;11.80;9.33;;;;;;;2.29;75.69;101305.50;1737972;81;21595;-59
2020/12/01 01:42:51;;;;;;;12.30;8.68;;;;;;;2.31;75.51;101309.44;1734024;81;21648;-59
2020/12/01 01:45:45;;;;;;;15.23;9.80;;;;;;;2.31;75.46;101314.23;1732782;81;21218;-59
2020/12/01 01:48:30;;;;;;;13.93;9.88;;;;;;;2.34;75.31;101305.26;1726135;81;21129;-59
2020/12/01 01:51:16;;;;;;;13.03;8.95;;;;;;;2.32;75.24;101304.31;1717570;81;21595;-59
2020/12/01 01:53:50;;;;;;;13.30;9.18;;;;;;;2.32;75.22;101300.81;1737936;81;21517;-59
2020/12/01 01:56:22;;;;;;;16.32;10.45;;;;;;;2.29;75.21;101309.39;1738009;81;21086;-59
2020/12/01 01:58:49;;;;;;;12.63;8.95;;;;;;;2.32;75.15;101314.70;1738064;81;22228;-59
2020/12/01 02:01:21;;;;;;;15.35;9.53;;;;;;;2.30;75.14;101304.67;1696699;82;21785;-59
2020/12/01 02:03:55;;;;;;;14.50;9.95;;;;;;;2.32;75.19;101311.20;1735198;81;21121;-59
2020/12/01 02:06:32;;;;;;;14.55;10.10;;;;;;;2.30;75.14;101312.47;1737907;81;21082;-59
2020/12/01 02:15:32;;;;;;;18.17;11.83;;;;;;;2.23;75.24;101316.53;1844083;76;28536;-57
2020/12/01 02:18:00;;;;;;;17.65;11.05;;;;;;;2.17;75.32;101320.23;1752569;79;21466;-52
2020/12/01 02:20:27;;;;;;;17.95;12.75;;;;;;;2.20;75.13;101325.54;1782706;80;22516;-53
2020/12/01 02:22:55;;;;;;;17.07;11.93;;;;;;;2.20;75.11;101323.34;1784716;80;21014;-53
2020/12/01 02:25:23;;;;;;;15.03;10.20;;;;;;;2.15;75.27;101317.98;1785173;79;21517;-52
2020/12/01 02:27:52;;;;;;;16.52;11.30;;;;;;;2.13;75.36;101318.73;1785047;80;21177;-52
2020/12/01 02:30:20;;;;;;;18.75;12.82;;;;;;;2.17;74.96;101313.73;1775309;80;20951;-53
2020/12/01 02:32:48;;;;;;;14.18;9.75;;;;;;;2.14;75.14;101315.31;1774781;80;21347;-52
2020/12/01 02:35:16;;;;;;;17.98;12.53;;;;;;;2.14;75.21;101310.12;1783106;80;21139;-52
2020/12/01 02:37:43;;;;;;;16.93;10.68;;;;;;;2.21;75.08;101310.39;1783195;80;21562;-53
2020/12/01 02:40:14;;;;;;;15.80;11.28;;;;;;;2.20;75.01;101300.86;1777418;80;21576;-53
2020/12/01 02:42:42;;;;;;;15.15;10.70;;;;;;;2.21;74.97;101294.80;1771342;80;21058;-53
2020/12/01 02:45:10;;;;;;;15.48;11.05;;;;;;;2.13;75.09;101305.35;1784802;79;23606;-52
2020/12/01 02:47:40;;;;;;;15.48;10.18;;;;;;;2.10;75.21;101301.34;1783033;80;21599;-54
2020/12/01 02:50:08;;;;;;;13.70;9.25;;;;;;;2.08;75.17;101300.40;1783766;80;21161;-54
2020/12/01 02:52:37;;;;;;;15.72;11.25;;;;;;;2.07;75.24;101302.09;1778340;80;21175;-54
2020/12/01 02:55:05;;;;;;;18.60;12.35;;;;;;;2.08;75.16;101310.36;1758425;80;21121;-54
2020/12/01 02:57:33;;;;;;;18.82;13.05;;;;;;;2.08;75.19;101318.14;1780224;80;23580;-54
2020/12/01 03:00:00;;;;;;;17.05;11.25;;;;;;;2.12;74.99;101311.77;1773205;80;21848;-54
2020/12/01 03:02:28;;;;;;;17.55;11.80;;;;;;;2.14;74.87;101314.02;1783739;80;21127;-54
2020/12/01 03:04:55;;;;;;;17.75;11.57;;;;;;;2.16;74.91;101317.16;1762916;80;21844;-54
2020/12/01 03:07:23;;;;;;;15.95;11.28;;;;;;;2.15;74.88;101315.78;1778893;80;21070;-54
2020/12/01 03:09:50;;;;;;;19.17;13.58;;;;;;;2.16;74.74;101313.66;1784641;80;22963;-54
2020/12/01 03:12:18;;;;;;;18.75;12.05;;;;;;;2.15;74.62;101315.39;1783106;80;21154;-54
2020/12/01 03:14:46;;;;;;;17.98;12.23;;;;;;;2.12;74.85;101315.66;1784359;80;21661;-54
2020/12/01 03:17:13;;;;;;;17.07;12.23;;;;;;;2.12;74.83;101313.97;1775159;80;21133;-54
2020/12/01 03:19:41;;;;;;;16.25;11.95;;;;;;;2.13;74.90;101314.84;1777063;80;21518;-54
2020/12/01 03:22:08;;;;;;;18.95;13.40;;;;;;;2.14;74.89;101316.22;1785136;80;21373;-54
2020/12/01 03:24:36;;;;;;;18.20;12.60;;;;;;;2.11;74.82;101313.89;1781544;80;21165;-54
2020/12/01 03:27:04;;;;;;;20.35;12.90;;;;;;;2.12;74.82;101313.07;1766628;80;21069;-54
2020/12/01 03:29:31;;;;;;;18.80;12.55;;;;;;;2.08;74.87;101308.19;1784473;80;21774;-54
2020/12/01 03:32:01;;;;;;;20.27;13.53;;;;;;;2.08;74.85;101309.48;1784525;80;21552;-54
2020/12/01 03:34:29;;;;;;;19.35;12.53;;;;;;;2.06;74.79;101312.44;1770950;80;21618;-54
2020/12/01 03:36:57;;;;;;;16.27;11.70;;;;;;;2.05;74.84;101319.33;1782584;80;21113;-55
2020/12/01 03:39:25;;;;;;;18.70;12.40;;;;;;;2.04;74.81;101314.96;1784196;80;21148;-54
2020/12/01 03:41:52;;;;;;;18.37;11.85;;;;;;;2.06;74.77;101313.31;1784438;80;21170;-55
2020/12/01 03:44:20;;;;;;;17.10;11.40;;;;;;;2.13;74.65;101310.95;1777742;80;21543;-54
2020/12/01 03:46:50;;;;;;;18.17;13.30;;;;;;;2.10;74.66;101316.92;1782876;80;21197;-54
2020/12/01 03:49:17;;;;;;;20.75;12.47;;;;;;;2.06;74.75;101313.73;1783237;80;21184;-55
2020/12/01 03:51:45;;;;;;;18.07;12.18;;;;;;;2.04;74.85;101307.17;1771559;80;21592;-55
2020/12/01 03:54:12;;;;;;;18.17;12.35;;;;;;;2.05;74.91;101308.07;1781255;80;21077;-54
2020/12/01 03:56:40;;;;;;;18.40;12.65;;;;;;;2.05;74.80;101310.67;1784555;80;21496;-54
2020/12/01 03:59:08;;;;;;;18.55;13.55;;;;;;;2.05;74.95;101321.92;1767815;80;21324;-54
2020/12/01 04:01:36;;;;;;;18.17;12.07;;;;;;;2.04;74.92;101316.69;1774360;80;21603;-54
2020/12/01 04:04:04;;;;;;;18.00;11.93;;;;;;;2.05;74.96;101317.16;1782222;80;21500;-55
2020/12/01 04:06:31;;;;;;;17.17;11.55;;;;;;;2.01;74.94;101316.14;1782571;80;21657;-56
2020/12/01 04:08:58;;;;;;;16.82;11.53;;;;;;;2.02;74.91;101314.45;1781702;80;21127;-54
2020/12/01 04:11:26;;;;;;;19.77;13.58;;;;;;;2.04;74.87;101322.75;1780553;80;21281;-55
2020/12/01 04:13:54;;;;;;;18.57;12.25;;;;;;;2.03;74.98;101322.70;1783844;79;21147;-55
2020/12/01 04:16:21;;;;;;;18.60;11.45;;;;;;;2.06;74.93;101321.10;1798963;79;21088;-54
2020/12/01 04:18:48;;;;;;;18.92;11.53;;;;;;;2.04;74.93;101327.95;1791177;79;21142;-55
2020/12/01 04:21:17;;;;;;;20.95;14.15;;;;;;;2.04;74.96;101322.75;1786934;79;21521;-55
2020/12/01 04:23:51;;;;;;;18.40;12.03;;;;;;;2.08;74.77;101324.64;1798250;79;22453;-54
2020/12/01 04:26:14;;;;;;;17.32;11.65;;;;;;;2.12;74.75;101324.76;1798935;79;21335;-55
2020/12/01 04:28:41;;;;;;;20.00;14.35;;;;;;;2.13;74.67;101324.83;1786821;79;21077;-55
2020/12/01 04:31:09;;;;;;;21.52;13.58;;;;;;;2.17;74.55;101324.52;1791845;79;21767;-55
2020/12/01 04:33:37;;;;;;;19.52;12.53;;;;;;;2.13;74.64;101325.23;1788890;80;21608;-54
2020/12/01 04:36:04;;;;;;;17.87;12.82;;;;;;;2.11;74.55;101321.29;1794750;79;21385;-55
2020/12/01 04:38:32;;;;;;;20.52;13.40;;;;;;;2.12;74.57;101324.36;1789631;79;21065;-55
2020/12/01 04:41:00;;;;;;;19.20;13.50;;;;;;;2.02;74.89;101320.51;1793411;79;21490;-55
2020/12/01 04:43:36;;;;;;;20.48;13.98;;;;;;;1.99;75.02;101322.98;1788910;79;21122;-55
2020/12/01 04:46:05;;;;;;;19.40;12.45;;;;;;;2.00;75.01;101326.48;1788169;79;21115;-55
2020/12/01 04:48:49;;;;;;;17.80;12.95;;;;;;;2.00;75.10;101330.38;1775421;79;21374;-55
2020/12/01 04:52:00;;;;;;;18.75;12.37;;;;;;;2.11;74.85;101325.19;1738588;81;21544;-55
2020/12/01 04:54:56;;;;;;;16.82;11.85;;;;;;;2.20;74.70;101322.94;1771035;80;21515;-54
2020/12/01 04:57:49;;;;;;;19.77;13.38;;;;;;;2.22;74.54;101335.54;1761645;80;21847;-54
2020/12/01 05:00:42;;;;;;;18.52;12.53;;;;;;;2.22;74.47;101329.48;1722156;83;21243;-55
2020/12/01 05:03:27;;;;;;;21.15;13.48;;;;;;;2.23;74.43;101326.05;1762296;79;23383;-54
2020/12/01 05:06:10;;;;;;;21.42;11.70;;;;;;;2.26;74.26;101322.27;1769016;80;21109;-54
2020/12/01 05:08:43;;;;;;;18.35;11.38;;;;;;;2.21;74.43;101323.38;1785036;80;21157;-56
2020/12/01 05:11:56;;;;;;;22.22;11.40;;;;;;;2.23;74.70;101328.22;1779078;80;21310;-55
2020/12/01 05:14:49;;;;;;;18.05;10.03;;;;;;;2.32;74.79;101318.61;1781381;80;21347;-55
2020/12/01 05:17:46;;;;;;;18.30;13.03;;;;;;;2.47;74.77;101314.77;1849222;76;28213;-53
2020/12/01 05:20:13;;;;;;;16.67;11.40;;;;;;;2.37;74.92;101309.66;1783403;79;21492;-54
2020/12/01 05:22:45;;;;;;;16.20;10.60;;;;;;;2.33;74.79;101315.58;1774396;78;23447;-55
2020/12/01 05:25:21;;;;;;;16.23;11.22;;;;;;;2.27;74.92;101316.64;1735852;82;21501;-54
2020/12/01 05:27:48;;;;;;;14.65;9.90;;;;;;;2.26;75.36;101323.97;1761400;79;21612;-55
2020/12/01 05:30:23;;;;;;;16.07;10.82;;;;;;;2.29;75.41;101319.78;1770688;81;21169;-55
2020/12/01 05:33:09;;;;;;;14.47;9.58;;;;;;;2.33;75.38;101320.77;1765837;80;21756;-55
2020/12/01 05:35:36;;;;;;;16.23;10.65;;;;;;;2.42;75.16;101319.81;1770756;79;21219;-54
2020/12/01 05:38:15;;;;;;;14.33;9.60;;;;;;;2.50;75.03;101314.48;1768191;79;21130;-54
2020/12/01 05:40:53;;;;;;;17.73;11.28;;;;;;;2.56;74.96;101315.53;1752883;79;21197;-55
2020/12/01 05:43:34;;;;;;;21.17;11.60;;;;;;;2.55;74.80;101317.66;1763774;79;22195;-55
2020/12/01 05:46:29;;;;;;;15.65;10.25;;;;;;;2.55;74.75;101320.27;1770661;79;21135;-56
2020/12/01 05:49:04;;;;;;;24.05;10.45;;;;;;;2.56;74.58;101322.03;1770650;79;23466;-57
2020/12/01 05:51:42;;;;;;;18.65;9.30;;;;;;;2.59;74.39;101321.71;1763097;79;21187;-55
2020/12/01 05:54:23;;;;;;;20.92;9.95;;;;;;;2.55;74.53;101316.36;1771241;79;21126;-54
2020/12/01 05:56:53;;;;;;;22.13;8.75;;;;;;;2.55;74.48;101318.53;1771705;79;21210;-56
2020/12/01 05:59:23;;;;;;;19.17;9.25;;;;;;;2.56;74.25;101319.44;1764517;81;21067;-54
2020/12/01 06:01:54;;;;;;;13.78;8.90;;;;;;;2.47;74.01;101319.97;1763690;79;21965;-53
2020/12/01 06:04:24;;;;;;;14.87;8.65;;;;;;;2.44;74.08;101323.35;1765337;79;21656;-54
2020/12/01 06:07:12;;;;;;;16.30;8.88;;;;;;;2.41;73.89;101331.47;1727239;79;21592;-55
2020/12/01 06:10:06;;;;;;;11.88;8.25;;;;;;;2.36;73.87;101332.18;1754524;79;21595;-55
2020/12/01 06:13:07;;;;;;;16.97;8.13;;;;;;;2.35;73.95;101325.61;1746970;79;21155;-54
2020/12/01 06:15:36;;;;;;;13.55;8.40;;;;;;;2.38;74.03;101314.94;1746773;79;26993;-54
2020/12/01 06:18:45;;;;;;;11.97;8.28;;;;;;;2.38;73.86;101311.44;1728109;81;21129;-54
2020/12/01 06:21:12;;;;;;;12.05;8.53;;;;;;;2.34;73.82;101316.95;1744045;81;21686;-55
2020/12/01 06:23:51;;;;;;;12.53;9.08;;;;;;;2.30;73.81;101315.06;1765388;79;21138;-54
2020/12/01 06:26:55;;;;;;;14.15;9.45;;;;;;;2.29;73.99;101312.39;1764947;81;21155;-54
2020/12/01 06:30:02;;;;;;;12.03;8.60;;;;;;;2.28;73.91;101323.21;1759431;81;22171;-55
2020/12/01 06:32:42;;;;;;;13.03;9.45;;;;;;;2.29;74.01;101314.59;1864022;76;28684;-53
2020/12/01 06:36:10;;;;;;;11.90;8.83;;;;;;;2.28;74.00;101326.20;1815422;77;21178;-55
2020/12/01 06:39:01;;;;;;;13.98;8.88;;;;;;;2.27;73.96;101335.73;1696529;82;23530;-55
2020/12/01 06:41:29;;;;;;;16.32;8.45;;;;;;;2.32;73.68;101323.80;1697463;82;21231;-54
2020/12/01 06:43:57;;;;;;;12.58;8.30;;;;;;;2.35;73.58;101320.41;1765402;78;21086;-54
2020/12/01 06:50:20;;;;;;;13.65;8.38;;;;;;;2.44;73.72;101318.16;1766714;79;28226;-53
2020/12/01 06:52:57;;;;;;;14.20;9.28;;;;;;;2.52;73.71;101321.92;1696152;83;21515;-53
2020/12/01 06:55:51;;;;;;;16.07;9.28;;;;;;;2.58;73.45;101321.24;1714518;83;23727;-55
2020/12/01 06:58:31;;;;;;;19.55;9.43;;;;;;;2.63;73.56;101318.83;1704889;83;21116;-54
2020/12/01 07:01:19;;;;;;;18.95;11.10;;;;;;;2.60;73.75;101315.69;1702007;83;27069;-55
2020/12/01 07:03:47;;;;;;;22.58;10.68;;;;;;;2.57;73.87;101312.11;1717340;83;21521;-54
2020/12/01 07:06:29;;;;;;;19.80;10.35;;;;;;;2.55;73.75;101315.06;1711229;83;21680;-55
2020/12/01 07:09:09;;;;;;;19.77;10.53;;;;;;;2.59;73.80;101310.45;1717461;83;23393;-56
2020/12/01 07:12:09;;;;;;;20.95;10.93;;;;;;;2.62;73.74;101304.93;1711151;83;21103;-55
2020/12/01 07:14:44;;;;;;;18.48;10.43;;;;;;;2.64;73.67;101314.97;1684677;83;21105;-54
2020/12/01 07:17:38;;;;;;;16.42;9.90;;;;;;;2.60;73.37;101320.88;1697666;83;21250;-55
2020/12/01 07:20:36;;;;;;;16.52;10.15;;;;;;;2.57;73.39;101316.00;1712446;83;21110;-55
2020/12/01 07:23:30;;;;;;;15.18;10.08;;;;;;;2.52;73.56;101321.02;1717268;83;21772;-54
2020/12/01 07:26:40;;;;;;;12.68;8.50;;;;;;;2.54;73.43;101319.36;1717788;83;21169;-54
2020/12/01 07:29:34;;;;;;;16.15;10.25;;;;;;;2.51;73.26;101316.65;1698343;83;21571;-55
2020/12/01 07:32:13;;;;;;;16.65;10.23;;;;;;;2.45;73.41;101312.13;1710028;83;21845;-54
2020/12/01 07:34:40;;;;;;;14.63;9.65;;;;;;;2.53;73.10;101320.19;1718927;83;21518;-54
2020/12/01 07:37:28;;;;;;;14.85;9.75;;;;;;;2.57;72.95;101315.58;1717917;83;22281;-54
2020/12/01 07:40:00;;;;;;;17.80;8.93;;;;;;;2.58;72.90;101307.38;1708708;83;21565;-54
2020/12/01 07:42:34;;;;;;;14.47;10.05;;;;;;;2.60;72.94;101309.19;1712556;83;21079;-54
2020/12/01 07:45:13;;;;;;;15.30;9.20;;;;;;;2.58;72.79;101309.98;1685243;83;21173;-54
2020/12/01 07:47:41;;;;;;;14.10;9.78;;;;;;;2.56;72.69;101309.91;1708434;82;21061;-54
2020/12/01 07:50:20;;;;;;;12.53;8.80;;;;;;;2.45;72.91;101310.83;1680944;83;23573;-54
2020/12/01 07:52:52;;;;;;;12.98;8.45;;;;;;;2.44;73.20;101312.96;1684880;83;21099;-54
2020/12/01 07:55:59;;;;;;;14.00;9.85;;;;;;;2.48;72.99;101316.54;1701137;84;21115;-55
2020/12/01 07:58:28;;;;;;;14.73;9.58;;;;;;;2.57;72.84;101316.00;1704500;83;21660;-54
2020/12/01 08:01:04;;;;;;;13.60;10.10;;;;;;;2.66;72.68;101322.41;1700878;84;21215;-54
2020/12/01 08:03:36;;;;;;;14.00;9.10;;;;;;;2.72;72.42;101324.33;1688945;83;21681;-54
2020/12/01 08:06:14;;;;;;;11.93;8.70;;;;;;;2.59;72.80;101321.71;1681961;84;21924;-54
2020/12/01 08:08:44;;;;;;;15.38;9.40;;;;;;;2.58;72.87;101331.64;1702257;83;21257;-55
2020/12/01 08:11:17;;;;;;;14.58;8.73;;;;;;;2.57;72.87;101328.57;1700661;84;21260;-54
2020/12/01 08:13:44;;;;;;;;;;;;;;;2.52;73.19;101332.31;1695022;84;21221;-55
2020/12/01 08:16:18;;;;;;;13.95;8.65;;;;;;;2.56;73.32;101325.93;1697354;84;21831;-55
2020/12/01 08:18:46;;;;;;;14.87;9.03;;;;;;;2.64;73.38;101325.80;1677795;83;21276;-55
2020/12/01 08:21:36;;;;;;;13.80;9.75;;;;;;;2.69;73.19;101321.61;1677688;84;21231;-55
2020/12/01 08:24:07;;;;;;;12.58;8.63;;;;;;;2.75;73.15;101320.53;1705925;83;21205;-56
2020/12/01 08:26:36;;;;;;;15.38;9.00;;;;;;;2.83;73.09;101319.52;1680204;84;21141;-55
2020/12/01 08:29:16;;;;;;;17.37;10.75;;;;;;;2.87;72.98;101314.86;1705924;84;21185;-55
2020/12/01 08:31:52;;;;;;;14.70;10.05;;;;;;;2.88;72.89;101312.73;1701323;83;21584;-55
2020/12/01 08:34:36;;;;;;;13.25;9.68;;;;;;;2.91;72.95;101305.04;1699401;83;21531;-56
2020/12/01 08:37:34;;;;;;;15.28;8.68;;;;;;;2.92;73.12;101308.55;1684218;84;21568;-55
2020/12/01 08:40:10;;;;;;;12.73;8.15;;;;;;;2.94;73.00;101306.45;1693429;84;21212;-55
2020/12/01 08:42:58;;;;;;;15.38;11.05;;;;;;;2.96;72.70;101303.48;1697407;84;21280;-55
2020/12/01 08:45:43;;;;;;;20.25;12.23;;;;;;;2.96;72.86;101302.62;1685911;83;21591;-55
2020/12/01 08:48:27;;;;;;;24.50;14.25;;;;;;;2.97;72.84;101304.38;1670121;84;21104;-55
2020/12/01 08:51:06;;;;;;;21.27;13.83;;;;;;;3.00;72.79;101295.39;1676054;84;21179;-55
2020/12/01 08:53:44;;;;;;;19.50;12.00;;;;;;;3.03;72.61;101298.49;1674832;84;21589;-55
2020/12/01 08:56:22;;;;;;;26.27;15.70;;;;;;;2.96;72.46;101289.61;1673647;84;22063;-55
2020/12/01 08:58:50;;;;;;;21.10;13.22;;;;;;;2.94;72.52;101293.45;1679319;84;21814;-55
2020/12/01 09:01:17;;;;;;;20.48;13.38;;;;;;;2.94;72.51;101293.45;1666685;84;21136;-55
2020/12/01 09:03:58;;;;;;;16.65;11.25;;;;;;;2.93;72.43;101279.11;1697495;84;21596;-55
2020/12/01 09:06:31;;;;;;;21.05;11.95;;;;;;;2.95;72.34;101277.01;1679554;84;21160;-55
2020/12/01 09:09:12;;;;;;;15.98;11.12;;;;;;;2.94;72.34;101266.13;1697072;84;22193;-55
2020/12/01 09:22:33;;;;;;;16.07;11.53;;;;;;;2.93;72.37;101259.59;1721285;82;23669;-55
2020/12/01 09:25:14;;;;;;;18.02;12.28;;;;;;;2.98;72.17;101260.20;1689720;84;21639;-55
2020/12/01 09:27:42;;;;;;;15.68;11.03;;;;;;;2.86;72.56;101269.33;1667808;85;21245;-57
2020/12/01 09:30:32;;;;;;;15.13;10.03;;;;;;;2.86;72.58;101276.73;1682139;84;21667;-54
2020/12/01 09:33:02;;;;;;;15.80;11.00;;;;;;;2.90;72.57;101269.47;1673507;84;21178;-55
2020/12/01 09:35:30;;;;;;;15.70;10.63;;;;;;;3.01;72.24;101270.24;1719812;82;21369;-55
2020/12/01 09:37:58;;;;;;;21.02;11.95;;;;;;;2.95;72.33;101273.53;1701630;82;21113;-55
2020/12/01 09:40:27;;;;;;;19.77;12.53;;;;;;;2.94;72.37;101261.36;1724155;82;21509;-55
2020/12/01 09:42:59;;;;;;;16.75;11.95;;;;;;;2.94;72.37;101260.06;1712816;82;21153;-55
2020/12/01 09:45:27;;;;;;;17.17;9.75;;;;;;;2.93;72.38;101261.77;1699829;82;21172;-55
2020/12/01 09:47:59;;;;;;;19.67;11.45;;;;;;;2.92;72.35;101262.59;1724573;82;21360;-56
2020/12/01 09:50:33;;;;;;;16.97;11.50;;;;;;;2.91;72.41;101260.83;1736424;81;21145;-56
2020/12/01 09:55:47;;;;;;;15.38;10.75;;;;;;;2.75;72.94;101263.77;1737096;82;21129;-55
2020/12/01 10:02:46;;;;;;;14.85;9.43;;;;;;;2.77;73.14;101261.67;1729387;81;23449;-55
2020/12/01 10:04:37;;;;;;;13.40;9.10;;;;;;;2.78;73.21;101255.64;1717290;82;21521;-56
2020/12/01 10:08:36;;;;;;;14.00;10.23;;;;;;;2.79;73.15;101261.74;1709026;82;21140;-55
2020/12/01 10:13:51;;;;;;;12.82;8.50;;;;;;;2.79;73.06;101257.84;1736073;82;22810;-55
2020/12/01 10:27:23;;;;;;;15.48;9.78;;;;;;;2.87;72.85;101260.69;1738224;82;21221;-56
2020/12/01 10:31:01;;;;;;;17.20;11.65;;;;;;;3.01;72.55;101258.14;1731061;82;22011;-57
2020/12/01 10:34:48;;;;;;;26.70;16.67;;;;;;;2.82;73.08;101256.65;1681078;82;20273;-56
2020/12/01 10:37:13;;;;;;;17.87;12.10;;;;;;;2.74;73.41;101261.56;1738001;81;21555;-57
2020/12/01 10:39:41;;;;;;;18.92;12.55;;;;;;;2.74;73.53;101260.70;1737895;82;21390;-56
2020/12/01 10:42:12;;;;;;;20.88;13.50;;;;;;;2.73;73.72;101258.50;1734144;82;21117;-56
2020/12/01 10:44:40;;;;;;;24.37;11.60;;;;;;;2.76;73.52;101260.34;1714665;82;21481;-54
2020/12/01 10:47:08;;;;;;;17.98;10.72;;;;;;;2.75;73.49;101259.88;1712721;82;21512;-54
2020/12/01 10:49:36;;;;;;;32.38;14.58;;;;;;;2.80;73.25;101264.81;1736581;81;21671;-54
2020/12/01 10:52:04;;;;;;;29.12;17.27;;;;;;;2.79;73.36;101270.41;1727887;82;22112;-54
2020/12/01 10:54:32;;;;;;;25.27;14.18;;;;;;;2.78;73.58;101269.08;1737586;82;21554;-54
2020/12/01 10:57:00;;;;;;;19.95;12.33;;;;;;;2.72;73.72;101258.03;1737483;82;21085;-54
2020/12/01 10:59:27;;;;;;;15.18;10.82;;;;;;;2.87;73.49;101258.09;1738192;82;21710;-54
2020/12/01 11:01:54;;;;;;;15.32;10.72;;;;;;;2.89;73.30;101257.30;1731050;82;21579;-53
2020/12/01 11:04:22;;;;;;;16.82;10.53;;;;;;;2.79;73.37;101265.64;1737155;82;23531;-54
2020/12/01 11:06:49;;;;;;;15.93;10.35;;;;;;;2.72;73.52;101266.26;1738210;82;21504;-53
2020/12/01 11:09:18;;;;;;;14.55;10.43;;;;;;;2.68;73.62;101267.45;1737485;82;21093;-54
2020/12/01 11:11:46;;;;;;;17.12;10.88;;;;;;;2.78;73.32;101259.97;1733818;81;21073;-53
2020/12/01 11:14:13;;;;;;;17.80;10.80;;;;;;;2.74;73.40;101261.56;1738323;82;21116;-53
2020/12/01 11:16:41;;;;;;;16.60;10.35;;;;;;;2.77;73.33;101262.11;1737570;81;22368;-53
2020/12/01 11:19:08;;;;;;;20.45;10.93;;;;;;;2.71;73.51;101265.36;1736435;82;21923;-54
2020/12/01 11:21:36;;;;;;;17.37;10.82;;;;;;;2.65;73.74;101269.08;1717744;82;21070;-54
2020/12/01 11:24:05;;;;;;;15.40;9.73;;;;;;;2.65;73.83;101261.28;1738237;82;21160;-53
2020/12/01 11:26:32;;;;;;;14.00;8.98;;;;;;;2.66;73.76;101261.31;1732901;82;21572;-54
2020/12/01 11:29:01;;;;;;;15.93;9.45;;;;;;;2.67;73.74;101259.19;1727543;82;21720;-54
2020/12/01 11:31:32;;;;;;;15.53;10.65;;;;;;;2.66;73.69;101254.81;1736011;82;21517;-55
2020/12/01 11:34:08;;;;;;;14.15;9.03;;;;;;;2.64;73.87;101251.71;1738286;82;21140;-55
2020/12/01 11:36:36;;;;;;;12.90;8.68;;;;;;;2.63;74.01;101255.14;1736183;82;21610;-55
2020/12/01 11:39:11;;;;;;;18.27;13.22;;;;;;;2.60;74.13;101252.44;1733633;82;21177;-55
2020/12/01 11:41:39;;;;;;;16.82;11.83;;;;;;;2.63;74.16;101256.02;1731326;82;22669;-55
2020/12/01 11:44:06;;;;;;;14.00;10.10;;;;;;;2.72;73.95;101254.56;1711939;82;21140;-55
2020/12/01 11:46:34;;;;;;;15.00;9.88;;;;;;;2.75;73.87;101257.27;1732292;82;21179;-54
2020/12/01 11:49:02;;;;;;;14.70;9.55;;;;;;;2.74;73.92;101253.77;1738201;82;21620;-55
2020/12/01 11:51:33;;;;;;;15.13;9.88;;;;;;;2.75;73.81;101249.47;1723485;82;21176;-56
2020/12/01 11:54:00;;;;;;;17.30;11.33;;;;;;;2.75;73.87;101254.67;1710234;82;21295;-56
2020/12/01 11:56:28;;;;;;;14.18;9.70;;;;;;;2.81;73.62;101256.18;1731264;82;21097;-55
2020/12/01 11:58:58;;;;;;;13.93;9.68;;;;;;;2.80;73.54;101255.28;1720513;82;21129;-55
2020/12/01 12:01:26;;;;;;;13.90;9.67;;;;;;;2.83;73.52;101259.28;1729902;82;21101;-55
2020/12/01 12:03:54;;;;;;;16.95;9.33;;;;;;;2.85;73.40;101251.95;1699513;82;21194;-55
2020/12/01 12:06:24;;;;;;;20.03;12.87;;;;;;;2.87;73.30;101256.79;1673568;84;21162;-55
2020/12/01 12:08:51;;;;;;;19.50;13.13;;;;;;;2.74;73.68;101255.50;1668779;85;21616;-55
2020/12/01 12:11:20;;;;;;;31.20;17.50;;;;;;;2.76;73.68;101245.61;1689741;84;21113;-55
2020/12/01 12:13:47;;;;;;;35.38;19.45;;;;;;;2.74;73.70;101245.97;1690029;84;21546;-55
2020/12/01 12:16:17;;;;;;;33.30;19.70;;;;;;;2.76;73.69;101249.50;1690711;84;21710;-55
2020/12/01 12:18:46;;;;;;;26.55;17.45;;;;;;;2.73;73.75;101242.91;1690737;84;21911;-56
2020/12/01 12:21:14;;;;;;;16.25;12.03;;;;;;;2.72;73.73;101248.06;1689413;84;21923;-55
2020/12/01 12:23:42;;;;;;;16.23;11.45;;;;;;;2.65;73.89;101247.85;1683521;85;21172;-55
2020/12/01 12:26:11;;;;;;;14.20;9.48;;;;;;;2.63;74.07;101244.74;1684266;85;21787;-55
2020/12/01 12:28:38;;;;;;;15.88;9.48;;;;;;;2.66;74.11;101253.91;1684351;85;21854;-56
2020/12/01 12:31:07;;;;;;;13.75;9.90;;;;;;;2.65;74.14;101246.55;1684253;84;23477;-55
2020/12/01 12:33:35;;;;;;;20.95;12.85;;;;;;;2.68;74.07;101249.25;1684193;84;21187;-55
2020/12/01 12:36:02;;;;;;;20.45;11.53;;;;;;;2.73;73.92;101252.43;1684288;85;21147;-55